»·PEaware :: N9837L KPRC-KINW

N9837L :: KPRC-KINW

FLIGHT INFORMATION

Flight Status: Arrived
Operator: Privately registered:
United States
More flights under this callsign
Pilot: Brian D. (44856)
Aircraft: CESSNA 172 SKYHAWK
(C172)
More flights by this aircraft type
Origin: KPRC Love
United States
Destination: KINW Winslow-Lindbergh Regl
United States
More flights between these airports :: More routes between these airports
Route:
File this flight plan on PilotEdge
Remarks:
Altitude:
(Current/Filed)
9,500ft
Speed:
(Current/Filed)
110kts
Departed: 09-Sep-23 08:03 AM
Arrived: 09-Sep-23 10:40 AM
Distance/Time
Traveled:
87nm/2:37
Distance/Time
To Go:
Arrived

Flight Plot

Page will automatically refresh every two minutes.

Flight plan parsing failed; only flown route is shown


Map Options




Map Legend


Flown Route
Filed Route
Departure Airport
Arrival Airport
Navaid (VOR, NDB)
Fix

Horizontal Profiles

Position Reports

Time Latitude Longitude Heading Altitude Ground
Speed
09-Sep-23 07:57 34.655727 -112.416420 39 4981ft 10kts
09-Sep-23 07:58 34.658848 -112.412450 40 4956ft 17kts
09-Sep-23 07:59 34.661575 -112.410587 313 4946ft 0kts
09-Sep-23 08:00 34.661577 -112.410589 313 4946ft 0kts
09-Sep-23 08:01 34.661814 -112.410971 306 4946ft 7kts
09-Sep-23 08:02 34.653178 -112.420797 217 5174ft 74kts
09-Sep-23 08:03 34.635934 -112.433806 194 5821ft 73kts
09-Sep-23 08:04 34.621902 -112.419887 115 6419ft 73kts
09-Sep-23 08:05 34.615152 -112.396437 71 6938ft 81kts
09-Sep-23 08:06 34.631202 -112.379105 36 7481ft 79kts
09-Sep-23 08:07 34.648751 -112.362197 36 7972ft 81kts
09-Sep-23 08:08 34.659523 -112.340992 65 8303ft 72kts
09-Sep-23 08:09 34.669461 -112.313990 58 8285ft 82kts
09-Sep-23 08:10 34.671370 -112.289896 100 8284ft 69kts
09-Sep-23 08:11 34.667399 -112.267603 91 8254ft 67kts
09-Sep-23 08:12 34.663099 -112.242945 161 7819ft 75kts
09-Sep-23 08:13 34.660410 -112.260846 299 7668ft 75kts
09-Sep-23 08:14 34.667117 -112.282934 262 7493ft 74kts
09-Sep-23 08:15 34.667561 -112.312033 272 7317ft 84kts
09-Sep-23 08:16 34.668908 -112.338549 258 6502ft 78kts
09-Sep-23 08:17 34.668877 -112.362209 309 6019ft 70kts
09-Sep-23 08:18 34.679746 -112.380562 292 5853ft 66kts
09-Sep-23 08:19 34.673465 -112.399396 220 5357ft 71kts
09-Sep-23 08:20 34.659683 -112.413966 217 4957ft 51kts
09-Sep-23 08:21 34.654110 -112.419042 134 4994ft 10kts
09-Sep-23 08:22 34.653885 -112.418740 137 4996ft 1kts
09-Sep-23 08:23 34.651388 -112.421015 221 5007ft 12kts
09-Sep-23 08:24 34.649182 -112.423339 217 5013ft 7kts
09-Sep-23 08:25 34.646888 -112.424911 125 5022ft 3kts
09-Sep-23 08:26 34.646861 -112.424822 101 5023ft 0kts
09-Sep-23 08:27 34.646861 -112.424822 101 5023ft 0kts
09-Sep-23 08:28 34.646861 -112.424822 101 5023ft 0kts
09-Sep-23 08:29 34.646861 -112.424822 101 5023ft 0kts
09-Sep-23 08:30 34.646861 -112.424822 101 5023ft 0kts
09-Sep-23 08:31 34.646861 -112.424822 101 5023ft 0kts
09-Sep-23 08:32 34.646861 -112.424822 101 5023ft 0kts
09-Sep-23 08:33 34.646861 -112.424822 101 5023ft 0kts
09-Sep-23 08:34 34.646861 -112.424822 101 5023ft 0kts
09-Sep-23 08:35 34.646861 -112.424822 101 5023ft 0kts
09-Sep-23 08:36 34.646861 -112.424822 101 5023ft 0kts
09-Sep-23 08:37 34.646861 -112.424822 101 5023ft 0kts
09-Sep-23 08:38 34.646861 -112.424822 101 5023ft 0kts
09-Sep-23 08:39 34.646861 -112.424822 101 5023ft 0kts
09-Sep-23 08:40 34.646861 -112.424822 101 5023ft 0kts
09-Sep-23 08:41 34.646861 -112.424822 101 5023ft 0kts
09-Sep-23 08:42 34.646861 -112.424822 101 5023ft 0kts
09-Sep-23 08:43 34.646861 -112.424822 101 5023ft 0kts
09-Sep-23 08:44 34.646861 -112.424822 101 5023ft 0kts
09-Sep-23 08:45 34.646861 -112.424822 101 5023ft 0kts
09-Sep-23 08:46 34.646861 -112.424822 101 5023ft 0kts
09-Sep-23 08:47 34.646861 -112.424822 101 5023ft 0kts
09-Sep-23 08:48 34.646861 -112.424822 101 5023ft 0kts
09-Sep-23 08:49 34.646861 -112.424822 101 5023ft 0kts
09-Sep-23 08:50 34.646861 -112.424822 101 5023ft 0kts
09-Sep-23 08:51 34.646861 -112.424822 101 5023ft 0kts
09-Sep-23 08:52 34.646861 -112.424822 101 5023ft 0kts
09-Sep-23 08:53 34.646861 -112.424822 101 5023ft 0kts
09-Sep-23 08:54 34.646861 -112.424822 101 5023ft 0kts
09-Sep-23 08:55 34.646861 -112.424822 101 5023ft 0kts
09-Sep-23 08:56 34.646861 -112.424822 101 5023ft 0kts
09-Sep-23 08:57 34.646861 -112.424822 101 5023ft 0kts
09-Sep-23 08:58 34.646861 -112.424822 101 5023ft 0kts
09-Sep-23 08:59 34.646861 -112.424822 101 5023ft 0kts
09-Sep-23 09:00 34.646861 -112.424822 101 5023ft 0kts
09-Sep-23 09:01 34.646861 -112.424822 101 5023ft 0kts
09-Sep-23 09:02 34.646861 -112.424822 101 5023ft 0kts
09-Sep-23 09:03 34.646861 -112.424822 101 5023ft 0kts
09-Sep-23 09:04 34.646861 -112.424822 101 5023ft 0kts
09-Sep-23 09:05 34.646861 -112.424822 101 5023ft 0kts
09-Sep-23 09:06 34.646861 -112.424822 101 5023ft 0kts
09-Sep-23 09:07 34.646861 -112.424822 101 5023ft 0kts
09-Sep-23 09:08 34.646861 -112.424822 101 5023ft 0kts
09-Sep-23 09:09 34.646861 -112.424822 101 5023ft 0kts
09-Sep-23 09:10 34.646861 -112.424822 101 5023ft 0kts
09-Sep-23 09:11 34.646861 -112.424822 101 5023ft 0kts
09-Sep-23 09:12 34.646861 -112.424822 101 5023ft 0kts
09-Sep-23 09:13 34.646861 -112.424822 101 5023ft 0kts
09-Sep-23 09:14 34.646861 -112.424822 101 5023ft 0kts
09-Sep-23 09:15 34.646861 -112.424822 101 5023ft 0kts
09-Sep-23 09:16 34.646861 -112.424822 101 5023ft 0kts
09-Sep-23 09:17 34.646861 -112.424822 101 5023ft 0kts
09-Sep-23 09:18 34.646861 -112.424822 101 5023ft 0kts
09-Sep-23 09:19 34.646861 -112.424822 101 5023ft 0kts
09-Sep-23 09:20 34.646861 -112.424822 101 5023ft 0kts
09-Sep-23 09:21 34.646861 -112.424822 101 5023ft 0kts
09-Sep-23 09:22 34.646861 -112.424822 101 5023ft 0kts
09-Sep-23 09:23 34.646861 -112.424822 101 5023ft 0kts
09-Sep-23 09:24 34.646861 -112.424822 101 5023ft 0kts
09-Sep-23 09:25 34.646861 -112.424822 101 5023ft 0kts
09-Sep-23 09:26 34.646861 -112.424822 101 5023ft 0kts
09-Sep-23 09:27 34.646861 -112.424822 101 5023ft 0kts
09-Sep-23 09:28 34.648223 -112.424370 40 5017ft 10kts
09-Sep-23 09:29 34.650424 -112.422030 41 5011ft 12kts
09-Sep-23 09:30 34.653126 -112.419196 42 5000ft 13kts
09-Sep-23 09:31 34.656369 -112.415763 39 4976ft 16kts
09-Sep-23 09:32 34.659127 -112.412131 43 4955ft 13kts
09-Sep-23 09:33 34.661201 -112.409417 357 4945ft 8kts
09-Sep-23 09:34 34.661358 -112.409509 311 4944ft 0kts
09-Sep-23 09:35 34.661477 -112.410215 264 4945ft 7kts
09-Sep-23 09:36 34.661546 -112.410554 312 4946ft 0kts
09-Sep-23 09:37 34.661546 -112.410554 312 4946ft 0kts
09-Sep-23 09:38 34.660638 -112.412945 221 4951ft 47kts
09-Sep-23 09:39 34.647518 -112.429881 249 5333ft 71kts
09-Sep-23 09:40 34.636207 -112.450394 228 5783ft 72kts
09-Sep-23 09:41 34.620861 -112.462082 168 6199ft 73kts
09-Sep-23 09:42 34.602884 -112.446349 120 6579ft 85kts
09-Sep-23 09:43 34.594452 -112.418228 108 6995ft 92kts
09-Sep-23 09:44 34.586172 -112.388060 108 7402ft 95kts
09-Sep-23 09:45 34.590806 -112.357240 68 7805ft 95kts
09-Sep-23 09:46 34.600660 -112.327235 69 8210ft 95kts
09-Sep-23 09:47 34.610451 -112.298203 68 8650ft 89kts
09-Sep-23 09:48 34.619616 -112.271354 67 9103ft 85kts
09-Sep-23 09:49 34.628406 -112.244486 69 9484ft 85kts
09-Sep-23 09:50 34.637599 -112.217600 67 9856ft 88kts
09-Sep-23 09:51 34.648744 -112.184441 68 9859ft 116kts
09-Sep-23 09:52 34.660409 -112.146874 69 9860ft 119kts
09-Sep-23 09:53 34.671829 -112.109475 68 9854ft 116kts
09-Sep-23 09:54 34.683860 -112.072405 68 9860ft 119kts
09-Sep-23 09:55 34.696293 -112.033934 69 9851ft 120kts
09-Sep-23 09:56 34.708192 -111.996771 69 9843ft 116kts
09-Sep-23 09:57 34.721399 -111.959480 64 9865ft 127kts
09-Sep-23 09:58 34.737778 -111.924453 59 9847ft 114kts
09-Sep-23 09:59 34.753022 -111.890435 60 9848ft 112kts
09-Sep-23 10:00 34.768513 -111.857496 60 9918ft 117kts
09-Sep-23 10:01 34.785624 -111.822305 60 9867ft 118kts
09-Sep-23 10:02 34.800775 -111.787522 60 9848ft 113kts
09-Sep-23 10:03 34.815579 -111.754218 60 9847ft 110kts
09-Sep-23 10:04 34.829273 -111.719399 79 9899ft 118kts
09-Sep-23 10:05 34.835338 -111.680268 80 9874ft 118kts
09-Sep-23 10:06 34.839879 -111.639980 81 9859ft 119kts
09-Sep-23 10:07 34.846250 -111.601128 76 9841ft 115kts
09-Sep-23 10:08 34.854884 -111.563775 75 9853ft 116kts
09-Sep-23 10:09 34.862766 -111.527002 75 9841ft 109kts
09-Sep-23 10:10 34.872534 -111.491401 71 9883ft 111kts
09-Sep-23 10:11 34.883975 -111.453285 71 9837ft 122kts
09-Sep-23 10:12 34.894797 -111.416121 71 9895ft 116kts
09-Sep-23 10:13 34.906583 -111.375919 71 9931ft 131kts
09-Sep-23 10:14 34.918116 -111.335970 71 9874ft 120kts
09-Sep-23 10:15 34.928965 -111.297750 71 9870ft 121kts
09-Sep-23 10:16 34.939816 -111.260393 71 9834ft 113kts
09-Sep-23 10:17 34.949718 -111.223556 78 9923ft 116kts
09-Sep-23 10:18 34.956978 -111.184224 77 9859ft 120kts
09-Sep-23 10:19 34.965655 -111.146536 75 9841ft 111kts
09-Sep-23 10:20 34.974065 -111.110553 74 9838ft 110kts
09-Sep-23 10:21 34.982587 -111.074254 74 9851ft 112kts
09-Sep-23 10:22 34.991317 -111.035837 75 9856ft 119kts
09-Sep-23 10:23 35.000083 -110.997446 76 9854ft 115kts
09-Sep-23 10:24 35.009166 -110.959353 74 9888ft 120kts
09-Sep-23 10:25 35.012641 -110.920092 92 9738ft 117kts
09-Sep-23 10:26 35.011887 -110.880663 92 9193ft 114kts
09-Sep-23 10:28 35.011193 -110.841033 91 8681ft 122kts
09-Sep-23 10:29 35.009987 -110.800468 92 8120ft 115kts
09-Sep-23 10:30 35.011807 -110.763904 73 7362ft 105kts
09-Sep-23 10:31 35.020477 -110.729960 71 6636ft 107kts
09-Sep-23 10:32 35.028409 -110.697794 71 6402ft 99kts
09-Sep-23 10:33 35.036602 -110.664277 74 6191ft 101kts
09-Sep-23 10:34 35.026704 -110.640685 195 6164ft 96kts
09-Sep-23 10:35 35.019673 -110.667621 282 6144ft 91kts
09-Sep-23 10:36 35.033711 -110.694285 305 6179ft 107kts
09-Sep-23 10:37 35.050143 -110.726737 301 5952ft 97kts
09-Sep-23 10:38 35.043719 -110.747473 197 5768ft 88kts
09-Sep-23 10:39 35.029181 -110.728026 116 4940ft 69kts
09-Sep-23 10:40 35.024055 -110.716911 128 4883ft 23kts
09-Sep-23 10:41 35.021837 -110.717010 296 4884ft 4kts
09-Sep-23 10:42 35.022091 -110.717129 17 4884ft 0kts
09-Sep-23 10:43 35.022091 -110.717129 17 4884ft 0kts
09-Sep-23 10:44 35.022091 -110.717129 17 4884ft 0kts
09-Sep-23 10:45 35.022091 -110.717129 17 4884ft 0kts
09-Sep-23 10:46 35.022091 -110.717129 17 4884ft 0kts
09-Sep-23 10:47 35.022091 -110.717129 17 4884ft 0kts
09-Sep-23 10:48 35.022091 -110.717129 17 4884ft 0kts
09-Sep-23 10:49 35.022091 -110.717129 17 4884ft 0kts
09-Sep-23 10:50 35.022091 -110.717129 17 4884ft 0kts
09-Sep-23 10:51 35.022091 -110.717129 17 4884ft 0kts
09-Sep-23 10:52 35.022091 -110.717129 17 4884ft 0kts
09-Sep-23 10:53 35.022091 -110.717129 17 4884ft 0kts
09-Sep-23 10:54 35.022091 -110.717129 17 4884ft 0kts

Navigation Log

Ident Type
Flight plan parsing failed, navigation log unavailable